createdAt,value
2018-02-07T00:00:08.494Z,8.48
2018-02-07T00:02:37.079Z,8.43
2018-02-07T00:05:05.350Z,8.45
2018-02-07T00:07:33.835Z,8.18
2018-02-07T00:10:02.352Z,8.22
2018-02-07T00:12:30.899Z,8.44
2018-02-07T00:14:59.690Z,8.48
2018-02-07T00:17:27.999Z,8.45
2018-02-07T00:19:56.856Z,8.47
2018-02-07T00:22:25.330Z,8.39
2018-02-07T00:24:53.550Z,8.47
2018-02-07T00:27:22.086Z,8.37
2018-02-07T00:29:50.979Z,8.26
2018-02-07T00:32:19.662Z,8.21
2018-02-07T00:34:48.248Z,8.14
2018-02-07T00:37:16.728Z,8.14
2018-02-07T00:39:45.514Z,8.13
2018-02-07T00:42:14.198Z,8.27
2018-02-07T00:44:42.802Z,8.21
2018-02-07T00:47:11.366Z,8.22
2018-02-07T00:49:39.847Z,8.06
2018-02-07T00:52:08.243Z,7.79
2018-02-07T00:54:36.907Z,7.72
2018-02-07T00:57:05.400Z,7.72
2018-02-07T00:59:33.788Z,7.91
2018-02-07T01:02:02.453Z,8.06
2018-02-07T01:04:31.039Z,7.98
2018-02-07T01:06:59.522Z,7.89
2018-02-07T01:09:27.889Z,7.89
2018-02-07T01:11:56.578Z,7.82
2018-02-07T01:14:24.971Z,7.82
2018-02-07T01:16:53.442Z,7.98
2018-02-07T01:19:22.225Z,7.96
2018-02-07T01:21:50.891Z,7.86
2018-02-07T01:24:19.598Z,7.77
2018-02-07T01:26:48.282Z,7.75
2018-02-07T01:29:16.558Z,7.67
2018-02-07T01:31:45.324Z,7.79
2018-02-07T01:34:13.466Z,7.83
2018-02-07T01:36:42.111Z,7.91
2018-02-07T01:39:10.674Z,7.93
2018-02-07T01:41:39.161Z,7.65
2018-02-07T01:44:07.641Z,7.57
2018-02-07T01:46:36.033Z,7.82
2018-02-07T01:49:04.910Z,7.96
2018-02-07T01:51:33.389Z,7.95
2018-02-07T01:54:01.678Z,7.72
2018-02-07T01:56:30.252Z,7.21
2018-02-07T01:58:58.714Z,6.22
2018-02-07T02:01:27.321Z,5.43
2018-02-07T02:03:55.793Z,5.15
2018-02-07T02:06:23.997Z,4.95
2018-02-07T02:08:52.346Z,4.94
2018-02-07T02:11:20.827Z,5.04
2018-02-07T02:13:49.409Z,5.07
2018-02-07T02:16:17.889Z,5.17
2018-02-07T02:18:46.270Z,4.87
2018-02-07T02:21:14.954Z,5.01
2018-02-07T02:23:43.416Z,5.56
2018-02-07T02:26:11.814Z,5.26
2018-02-07T02:28:40.398Z,5.51
2018-02-07T02:31:08.685Z,6.20
2018-02-07T02:33:36.951Z,6.10
2018-02-07T02:36:17.453Z,6.46
2018-02-07T02:38:45.791Z,6.44
2018-02-07T02:41:14.675Z,6.46
2018-02-07T02:43:42.843Z,6.41
2018-02-07T02:46:11.336Z,6.71
2018-02-07T02:48:39.914Z,6.36
2018-02-07T02:51:08.906Z,6.77
2018-02-07T02:53:37.570Z,6.79
2018-02-07T02:56:06.070Z,6.96
2018-02-07T02:58:34.655Z,7.13
2018-02-07T03:01:03.018Z,7.15
2018-02-07T03:03:31.413Z,7.23
2018-02-07T03:06:00.194Z,7.22
2018-02-07T03:08:28.678Z,7.00
2018-02-07T03:10:56.955Z,7.18
2018-02-07T03:13:25.349Z,7.24
2018-02-07T03:15:53.810Z,7.20
2018-02-07T03:18:21.986Z,6.43
2018-02-07T03:20:50.561Z,5.88
2018-02-07T03:23:19.047Z,6.41
2018-02-07T03:25:47.338Z,6.89
2018-02-07T03:28:15.702Z,7.09
2018-02-07T03:30:44.183Z,7.21
2018-02-07T03:33:12.557Z,7.09
2018-02-07T03:35:41.255Z,7.07
2018-02-07T03:38:09.936Z,7.02
2018-02-07T03:40:38.506Z,6.87
2018-02-07T03:43:07.245Z,6.69
2018-02-07T03:45:35.881Z,6.78
2018-02-07T03:48:04.678Z,6.72
2018-02-07T03:50:32.841Z,6.72
2018-02-07T03:53:01.633Z,6.69
2018-02-07T03:55:30.526Z,5.98
2018-02-07T03:57:58.907Z,5.83
2018-02-07T04:00:27.181Z,6.10
2018-02-07T04:02:55.454Z,6.23
2018-02-07T04:05:24.137Z,6.49
2018-02-07T04:07:52.722Z,6.47
2018-02-07T04:10:21.254Z,6.58
2018-02-07T04:12:49.578Z,6.31
2018-02-07T04:15:18.146Z,5.95
2018-02-07T04:17:46.543Z,5.91
2018-02-07T04:20:15.130Z,6.19
2018-02-07T04:22:43.302Z,6.34
2018-02-07T04:25:11.674Z,6.29
2018-02-07T04:27:40.114Z,6.20
2018-02-07T04:30:08.640Z,6.12
2018-02-07T04:32:37.322Z,5.81
2018-02-07T04:35:05.711Z,5.84
2018-02-07T04:37:34.132Z,5.85
2018-02-07T04:40:02.453Z,5.82
2018-02-07T04:42:30.934Z,5.77
2018-02-07T04:44:59.421Z,5.81
2018-02-07T04:47:28.082Z,5.88
2018-02-07T04:49:56.286Z,5.88
2018-02-07T04:52:24.962Z,5.91
2018-02-07T04:54:53.555Z,5.85
2018-02-07T04:57:21.925Z,5.70
2018-02-07T04:59:50.402Z,5.36
2018-02-07T05:02:18.779Z,5.83
2018-02-07T05:04:47.173Z,5.62
2018-02-07T05:07:15.450Z,5.23
2018-02-07T05:09:43.895Z,5.62
2018-02-07T05:12:12.190Z,5.38
2018-02-07T05:14:40.832Z,5.22
2018-02-07T05:17:09.359Z,4.83
2018-02-07T05:19:37.839Z,5.03
2018-02-07T05:22:06.133Z,5.22
2018-02-07T05:24:34.388Z,5.71
2018-02-07T05:27:03.012Z,5.51
2018-02-07T05:29:31.554Z,5.03
2018-02-07T05:32:00.139Z,5.04
2018-02-07T05:34:28.905Z,5.04
2018-02-07T05:36:57.402Z,5.32
2018-02-07T05:39:26.090Z,5.76
2018-02-07T05:41:54.551Z,5.84
2018-02-07T05:44:23.153Z,5.52
2018-02-07T05:46:51.838Z,5.12
2018-02-07T05:49:20.300Z,5.05
2018-02-07T05:51:48.800Z,5.36
2018-02-07T05:54:17.077Z,5.07
2018-02-07T05:56:45.759Z,5.25
2018-02-07T05:59:14.031Z,4.73
2018-02-07T06:01:42.530Z,5.32
2018-02-07T06:04:10.709Z,5.97
2018-02-07T06:06:38.964Z,6.44
2018-02-07T06:09:07.528Z,6.61
2018-02-07T06:11:35.927Z,6.68
2018-02-07T06:14:04.324Z,6.75
2018-02-07T06:16:33.090Z,7.02
2018-02-07T06:19:01.878Z,7.14
2018-02-07T06:21:30.199Z,7.12
2018-02-07T06:23:59.031Z,7.15
2018-02-07T06:26:27.531Z,7.15
2018-02-07T06:28:56.110Z,7.30
2018-02-07T06:31:24.378Z,7.72
2018-02-07T06:33:52.873Z,6.96
2018-02-07T06:36:21.345Z,7.11
2018-02-07T06:38:49.947Z,7.17
2018-02-07T06:41:18.309Z,7.17
2018-02-07T06:43:46.682Z,7.11
2018-02-07T06:46:14.961Z,6.83
2018-02-07T06:48:43.745Z,7.28
2018-02-07T06:51:12.311Z,7.06
2018-02-07T06:53:40.917Z,7.06
2018-02-07T06:56:09.390Z,6.77
2018-02-07T06:58:38.386Z,6.54
2018-02-07T07:01:06.570Z,6.78
2018-02-07T07:03:34.835Z,6.77
2018-02-07T07:06:03.518Z,6.43
2018-02-07T07:08:31.902Z,6.62
2018-02-07T07:11:00.481Z,7.06
2018-02-07T07:13:29.062Z,7.87
2018-02-07T07:15:57.347Z,7.68
2018-02-07T07:18:25.722Z,7.81
2018-02-07T07:20:54.076Z,7.70
2018-02-07T07:23:22.577Z,7.91
2018-02-07T07:25:51.571Z,8.27
2018-02-07T07:28:19.993Z,8.84
2018-02-07T07:30:48.326Z,8.58
2018-02-07T07:33:16.298Z,8.39
2018-02-07T07:35:44.274Z,8.68
2018-02-07T07:38:12.327Z,9.04
2018-02-07T07:40:40.304Z,9.33
2018-02-07T07:43:08.320Z,9.33
2018-02-07T07:45:36.302Z,8.41
2018-02-07T07:48:04.249Z,8.43
2018-02-07T07:50:32.259Z,7.93
2018-02-07T07:53:00.243Z,8.27
2018-02-07T07:55:28.246Z,8.38
2018-02-07T07:57:56.207Z,9.04
2018-02-07T08:00:24.567Z,8.88
2018-02-07T08:02:52.575Z,8.98
2018-02-07T08:05:20.482Z,9.12
2018-02-07T08:07:48.466Z,9.54
2018-02-07T08:10:16.468Z,9.82
2018-02-07T08:12:45.106Z,10.40
2018-02-07T08:15:13.093Z,10.54
2018-02-07T08:17:41.050Z,10.97
2018-02-07T08:20:09.053Z,11.67
2018-02-07T08:22:37.140Z,11.91
2018-02-07T08:25:05.218Z,11.98
2018-02-07T08:27:33.143Z,12.95
2018-02-07T08:30:01.231Z,13.01
2018-02-07T08:32:29.226Z,13.01
2018-02-07T08:34:57.238Z,13.52
2018-02-07T08:37:25.238Z,13.64
2018-02-07T08:39:53.242Z,13.63
2018-02-07T08:42:21.194Z,13.91
2018-02-07T08:44:49.202Z,14.99
2018-02-07T08:47:17.267Z,15.21
2018-02-07T08:49:45.253Z,15.50
2018-02-07T08:52:13.185Z,15.18
2018-02-07T08:54:41.050Z,16.13
2018-02-07T08:57:09.062Z,16.13
2018-02-07T08:59:37.027Z,16.65
2018-02-07T09:02:05.412Z,16.18
2018-02-07T09:04:33.431Z,15.43
2018-02-07T09:07:01.450Z,15.15
2018-02-07T09:09:29.519Z,14.13
2018-02-07T09:11:57.533Z,13.92
2018-02-07T09:14:25.493Z,15.55
2018-02-07T09:16:53.494Z,14.24
2018-02-07T09:19:21.493Z,13.94
2018-02-07T09:21:49.771Z,12.99
2018-02-07T09:24:18.156Z,12.14
2018-02-07T09:26:47.156Z,11.81
2018-02-07T09:29:15.731Z,12.01
2018-02-07T09:31:44.305Z,11.29
2018-02-07T09:34:12.871Z,11.75
2018-02-07T09:36:41.473Z,11.50
2018-02-07T09:39:10.053Z,10.98
2018-02-07T09:41:38.722Z,11.10
2018-02-07T09:44:06.918Z,11.34
2018-02-07T09:46:35.398Z,12.17
2018-02-07T09:49:03.778Z,13.78
2018-02-07T09:51:32.254Z,14.00
2018-02-07T09:54:01.045Z,14.62
2018-02-07T09:56:29.502Z,15.80
2018-02-07T09:58:57.906Z,14.98
2018-02-07T10:01:26.488Z,14.63
2018-02-07T10:03:55.242Z,14.99
2018-02-07T10:06:24.038Z,13.42
2018-02-07T10:08:52.642Z,12.75
2018-02-07T10:11:21.018Z,12.20
2018-02-07T10:13:49.606Z,12.71
2018-02-07T10:16:18.190Z,14.33
2018-02-07T10:18:46.562Z,14.85
2018-02-07T10:21:14.838Z,14.90
2018-02-07T10:23:43.425Z,15.10
2018-02-07T10:26:11.595Z,15.29
2018-02-07T10:28:39.974Z,15.23
2018-02-07T10:31:08.454Z,15.64
2018-02-07T10:33:37.267Z,16.19
2018-02-07T10:36:05.619Z,16.42
2018-02-07T10:38:34.002Z,15.51
2018-02-07T10:41:02.582Z,15.15
2018-02-07T10:43:31.290Z,15.23
2018-02-07T10:46:00.155Z,15.17
2018-02-07T10:48:28.733Z,15.05
2018-02-07T10:50:57.197Z,15.77
2018-02-07T10:53:25.496Z,15.95
2018-02-07T10:55:53.770Z,15.41
2018-02-07T10:58:22.741Z,15.37
2018-02-07T11:00:51.331Z,16.70
2018-02-07T11:03:19.717Z,16.24
2018-02-07T11:05:48.713Z,16.45
2018-02-07T11:08:17.127Z,16.31
2018-02-07T11:10:45.476Z,17.17
2018-02-07T11:13:13.487Z,18.40
2018-02-07T11:15:41.440Z,19.57
2018-02-07T11:18:09.458Z,19.88
2018-02-07T11:20:37.508Z,19.90
2018-02-07T11:23:05.545Z,19.15
2018-02-07T11:25:33.535Z,20.17
2018-02-07T11:28:01.564Z,20.78
2018-02-07T11:30:29.499Z,20.44
2018-02-07T11:32:57.475Z,20.87
2018-02-07T11:35:25.478Z,20.02
2018-02-07T11:37:53.473Z,20.86
2018-02-07T11:40:21.441Z,20.16
2018-02-07T11:42:49.398Z,19.68
2018-02-07T11:45:17.355Z,19.96
2018-02-07T11:47:45.818Z,19.99
2018-02-07T11:50:14.197Z,21.01
2018-02-07T11:52:42.473Z,20.71
2018-02-07T11:55:10.855Z,21.37
2018-02-07T11:57:38.800Z,21.62
2018-02-07T12:00:06.771Z,19.94
2018-02-07T12:02:34.730Z,19.72
2018-02-07T12:05:02.689Z,19.20
2018-02-07T12:07:30.998Z,18.34
2018-02-07T12:09:58.961Z,17.81
2018-02-07T12:12:27.018Z,19.03
2018-02-07T12:14:55.073Z,18.24
2018-02-07T12:17:23.134Z,18.66
2018-02-07T12:19:51.632Z,17.59
2018-02-07T12:22:20.514Z,17.00
2018-02-07T12:24:48.538Z,17.42
2018-02-07T12:27:16.486Z,17.57
2018-02-07T12:29:44.513Z,17.78
2018-02-07T12:32:12.473Z,17.67
2018-02-07T12:34:41.530Z,17.09
2018-02-07T12:37:09.550Z,16.95
2018-02-07T12:39:37.559Z,18.51
2018-02-07T12:42:05.555Z,18.40
2018-02-07T12:44:33.596Z,18.86
2018-02-07T12:47:01.575Z,18.69
2018-02-07T12:49:29.575Z,18.78
2018-02-07T12:51:58.678Z,18.35
2018-02-07T12:54:27.681Z,18.17
2018-02-07T12:56:55.651Z,18.03
2018-02-07T12:59:23.618Z,17.26
2018-02-07T13:01:51.643Z,17.63
2018-02-07T13:04:19.756Z,17.41
2018-02-07T13:06:48.945Z,16.84
2018-02-07T13:09:17.378Z,16.63
2018-02-07T13:11:45.291Z,17.40
2018-02-07T13:14:13.251Z,15.93
2018-02-07T13:16:41.191Z,14.97
2018-02-07T13:19:09.163Z,15.15
2018-02-07T13:21:37.117Z,14.27
2018-02-07T13:24:05.127Z,14.57
2018-02-07T13:26:33.571Z,14.99
2018-02-07T13:29:02.191Z,14.54
2018-02-07T13:31:30.175Z,12.92
2018-02-07T13:33:58.705Z,12.49
2018-02-07T13:36:26.974Z,12.58
2018-02-07T13:38:55.455Z,12.50
2018-02-07T13:41:23.830Z,12.40
2018-02-07T13:43:52.427Z,12.25
2018-02-07T13:46:20.963Z,12.60
2018-02-07T13:48:49.296Z,12.34
2018-02-07T13:51:17.835Z,12.08
2018-02-07T13:53:46.338Z,11.92
2018-02-07T13:56:18.380Z,12.17
2018-02-07T13:58:48.159Z,12.09
2018-02-07T14:01:16.137Z,12.05
2018-02-07T14:03:44.128Z,12.21
2018-02-07T14:06:12.057Z,12.13
2018-02-07T14:08:40.042Z,11.96
2018-02-07T14:11:08.351Z,11.91
2018-02-07T14:13:36.350Z,11.87
2018-02-07T14:16:04.361Z,12.05
2018-02-07T14:18:32.344Z,11.85
2018-02-07T14:21:00.439Z,11.66
2018-02-07T14:23:28.410Z,11.52
2018-02-07T14:25:56.363Z,11.52
2018-02-07T14:28:24.298Z,11.57
2018-02-07T14:30:52.254Z,11.47
2018-02-07T14:33:20.205Z,11.46
2018-02-07T14:35:48.171Z,10.96
2018-02-07T14:38:16.131Z,11.49
2018-02-07T14:40:44.134Z,11.53
2018-02-07T14:43:12.109Z,11.60
2018-02-07T14:45:40.101Z,11.62
2018-02-07T14:48:08.066Z,11.57
2018-02-07T14:50:36.030Z,11.65
2018-02-07T14:53:04.082Z,11.80
2018-02-07T14:55:32.059Z,11.66
2018-02-07T14:58:00.054Z,11.77
2018-02-07T15:00:27.963Z,11.66
2018-02-07T15:02:55.931Z,11.61
2018-02-07T15:05:23.917Z,11.51
2018-02-07T15:07:51.859Z,11.74
2018-02-07T15:10:19.865Z,11.69
2018-02-07T15:12:48.074Z,11.59
2018-02-07T15:15:16.048Z,11.30
2018-02-07T15:17:44.010Z,11.32
2018-02-07T15:20:12.047Z,11.23
2018-02-07T15:22:40.066Z,11.22
2018-02-07T15:25:08.073Z,11.14
2018-02-07T15:27:36.118Z,11.05
2018-02-07T15:30:04.159Z,11.18
2018-02-07T15:32:32.187Z,11.33
2018-02-07T15:35:00.164Z,11.53
2018-02-07T15:37:28.102Z,11.35
2018-02-07T15:39:56.666Z,11.43
2018-02-07T15:42:24.631Z,11.18
2018-02-07T15:44:52.556Z,11.05
2018-02-07T15:47:20.574Z,11.12
2018-02-07T15:49:48.490Z,11.43
2018-02-07T15:52:16.478Z,11.04
2018-02-07T15:54:44.446Z,11.14
2018-02-07T15:57:12.392Z,11.12
2018-02-07T15:59:40.918Z,11.10
2018-02-07T16:02:08.967Z,10.97
2018-02-07T16:04:37.007Z,10.92
2018-02-07T16:07:05.027Z,11.03
2018-02-07T16:09:33.033Z,11.24
2018-02-07T16:12:01.106Z,11.56
2018-02-07T16:14:29.551Z,10.87
2018-02-07T16:16:57.499Z,11.43
2018-02-07T16:19:25.568Z,11.25
2018-02-07T16:21:53.490Z,11.09
2018-02-07T16:24:21.557Z,10.96
2018-02-07T16:26:49.509Z,10.78
2018-02-07T16:29:17.529Z,10.69
2018-02-07T16:31:45.490Z,10.94
2018-02-07T16:34:13.449Z,10.79
2018-02-07T16:36:41.473Z,11.05
2018-02-07T16:39:09.425Z,11.30
2018-02-07T16:41:37.913Z,11.22
2018-02-07T16:44:06.813Z,11.18
2018-02-07T16:46:35.183Z,11.00
2018-02-07T16:49:03.870Z,10.87
2018-02-07T16:51:32.250Z,10.83
2018-02-07T16:54:00.730Z,10.92
2018-02-07T16:56:29.210Z,10.94
2018-02-07T16:58:57.524Z,10.93
2018-02-07T17:01:25.570Z,10.89
2018-02-07T17:03:53.527Z,11.39
2018-02-07T17:06:21.511Z,11.55
2018-02-07T17:08:49.459Z,11.79
2018-02-07T17:11:17.451Z,11.59
2018-02-07T17:13:45.475Z,11.50
2018-02-07T17:16:13.826Z,11.34
2018-02-07T17:18:41.777Z,11.73
2018-02-07T17:21:09.896Z,11.65
2018-02-07T17:23:38.498Z,11.84
2018-02-07T17:26:07.083Z,12.15
2018-02-07T17:28:35.571Z,12.14
2018-02-07T17:31:04.021Z,12.03
2018-02-07T17:33:32.027Z,11.94
2018-02-07T17:36:00.049Z,11.76
2018-02-07T17:38:28.131Z,11.85
2018-02-07T17:40:56.090Z,11.89
2018-02-07T17:43:24.090Z,12.04
2018-02-07T17:45:52.678Z,11.90
2018-02-07T17:48:20.646Z,11.73
2018-02-07T17:50:48.714Z,11.92
2018-02-07T17:53:16.667Z,11.83
2018-02-07T17:55:44.618Z,11.90
2018-02-07T17:58:12.598Z,11.65
2018-02-07T18:00:40.617Z,11.52
2018-02-07T18:03:08.614Z,11.47
2018-02-07T18:05:36.638Z,11.46
2018-02-07T18:08:04.681Z,11.78
2018-02-07T18:10:32.683Z,12.07
2018-02-07T18:13:00.683Z,12.00
2018-02-07T18:15:28.697Z,12.00
2018-02-07T18:17:56.839Z,11.44
2018-02-07T18:20:24.855Z,10.81
2018-02-07T18:22:52.822Z,10.45
2018-02-07T18:25:20.781Z,10.31
2018-02-07T18:27:48.807Z,10.49
2018-02-07T18:30:16.789Z,10.61
2018-02-07T18:32:44.774Z,10.69
2018-02-07T18:35:12.754Z,10.12
2018-02-07T18:37:40.760Z,10.02
2018-02-07T18:40:08.671Z,10.73
2018-02-07T18:42:36.673Z,10.79
2018-02-07T18:45:04.700Z,10.64
2018-02-07T18:47:32.767Z,11.00
2018-02-07T18:50:00.775Z,11.40
2018-02-07T18:52:28.774Z,11.10
2018-02-07T18:54:57.330Z,11.39
2018-02-07T18:57:25.988Z,11.20
2018-02-07T18:59:54.390Z,11.37
2018-02-07T19:02:22.871Z,11.64
2018-02-07T19:04:51.259Z,11.65
2018-02-07T19:07:19.830Z,10.92
2018-02-07T19:09:48.310Z,10.56
2018-02-07T19:12:16.890Z,10.18
2018-02-07T19:14:45.492Z,10.34
2018-02-07T19:17:13.489Z,10.71
2018-02-07T19:19:41.824Z,10.96
2018-02-07T19:22:09.731Z,10.90
2018-02-07T19:24:37.689Z,10.74
2018-02-07T19:27:05.627Z,11.06
2018-02-07T19:29:33.596Z,11.32
2018-02-07T19:32:01.543Z,11.51
2018-02-07T19:34:29.611Z,11.21
2018-02-07T19:36:57.639Z,11.25
2018-02-07T19:39:25.617Z,11.46
2018-02-07T19:41:53.565Z,11.56
2018-02-07T19:44:21.618Z,11.71
2018-02-07T19:46:49.641Z,11.65
2018-02-07T19:49:17.598Z,11.61
2018-02-07T19:51:45.629Z,11.32
2018-02-07T19:54:13.624Z,11.34
2018-02-07T19:56:41.600Z,11.58
2018-02-07T19:59:09.618Z,11.48
2018-02-07T20:01:37.599Z,11.60
2018-02-07T20:04:05.517Z,11.71
2018-02-07T20:06:34.437Z,11.65
2018-02-07T20:09:02.427Z,11.71
2018-02-07T20:11:30.392Z,11.77
2018-02-07T20:13:58.454Z,11.48
2018-02-07T20:16:26.382Z,11.20
2018-02-07T20:18:54.342Z,11.20
2018-02-07T20:21:22.583Z,11.54
2018-02-07T20:23:50.528Z,11.62
2018-02-07T20:26:18.570Z,11.66
2018-02-07T20:28:46.578Z,11.63
2018-02-07T20:31:14.523Z,11.75
2018-02-07T20:33:42.517Z,11.75
2018-02-07T20:36:10.459Z,11.64
2018-02-07T20:38:38.443Z,11.41
2018-02-07T20:41:06.505Z,11.13
2018-02-07T20:43:34.495Z,11.14
2018-02-07T20:46:02.460Z,11.33
2018-02-07T20:48:30.474Z,11.42
2018-02-07T20:50:58.467Z,11.43
2018-02-07T20:53:26.466Z,11.45
2018-02-07T20:55:54.474Z,11.48
2018-02-07T20:58:22.405Z,11.38
2018-02-07T21:00:50.389Z,11.35
2018-02-07T21:03:18.337Z,11.41
2018-02-07T21:05:46.542Z,11.36
2018-02-07T21:08:14.543Z,11.39
2018-02-07T21:10:42.476Z,11.36
2018-02-07T21:13:10.411Z,11.42
2018-02-07T21:15:38.375Z,11.32
2018-02-07T21:18:06.353Z,11.25
2018-02-07T21:20:34.405Z,10.92
2018-02-07T21:23:02.819Z,10.42
2018-02-07T21:25:30.783Z,9.70
2018-02-07T21:27:58.762Z,9.75
2018-02-07T21:30:26.711Z,10.38
2018-02-07T21:32:54.810Z,10.72
2018-02-07T21:35:22.766Z,10.89
2018-02-07T21:37:50.746Z,11.15
2018-02-07T21:40:18.713Z,11.23
2018-02-07T21:42:46.708Z,11.27
2018-02-07T21:45:14.628Z,11.31
2018-02-07T21:47:42.621Z,11.41
2018-02-07T21:50:10.693Z,11.45
2018-02-07T21:52:38.662Z,11.25
2018-02-07T21:55:06.668Z,11.40
2018-02-07T21:57:34.616Z,10.89
2018-02-07T22:00:02.719Z,11.37
2018-02-07T22:02:31.019Z,11.21
2018-02-07T22:04:59.494Z,11.20
2018-02-07T22:07:27.698Z,10.53
2018-02-07T22:09:56.251Z,9.95
2018-02-07T22:12:24.629Z,9.88
2018-02-07T22:14:52.855Z,10.24
2018-02-07T22:17:21.697Z,10.69
2018-02-07T22:19:50.583Z,10.55
2018-02-07T22:22:18.898Z,10.33
2018-02-07T22:24:47.645Z,10.64
2018-02-07T22:27:16.004Z,10.90
2018-02-07T22:29:44.653Z,10.97
2018-02-07T22:32:13.086Z,10.96
2018-02-07T22:34:41.774Z,11.29
2018-02-07T22:37:10.046Z,10.84
2018-02-07T22:39:38.535Z,10.87
2018-02-07T22:42:07.010Z,10.69
2018-02-07T22:44:35.494Z,10.37
2018-02-07T22:47:03.865Z,10.91
2018-02-07T22:49:32.250Z,11.14
2018-02-07T22:52:00.829Z,11.24
2018-02-07T22:54:29.191Z,11.35
2018-02-07T22:56:57.587Z,11.37
2018-02-07T22:59:26.066Z,11.46
2018-02-07T23:01:54.532Z,11.30
2018-02-07T23:04:23.130Z,10.47
2018-02-07T23:06:51.709Z,10.76
2018-02-07T23:09:19.985Z,11.07
2018-02-07T23:11:48.674Z,10.99
2018-02-07T23:14:17.046Z,11.06
2018-02-07T23:16:45.640Z,11.13
2018-02-07T23:19:14.319Z,11.27
2018-02-07T23:21:42.799Z,11.27
2018-02-07T23:24:11.497Z,11.32
2018-02-07T23:26:39.961Z,10.70
2018-02-07T23:29:08.662Z,10.78
2018-02-07T23:31:37.438Z,10.86
2018-02-07T23:34:05.794Z,10.97
2018-02-07T23:36:34.294Z,10.96
2018-02-07T23:39:02.878Z,11.04
2018-02-07T23:41:31.161Z,10.91
2018-02-07T23:43:59.425Z,10.91
2018-02-07T23:46:27.705Z,10.40
2018-02-07T23:48:56.086Z,10.32
2018-02-07T23:51:24.574Z,10.00
2018-02-07T23:53:53.152Z,9.66
2018-02-07T23:56:21.530Z,10.32
2018-02-07T23:58:50.087Z,10.50
